sensor_id;sensor_type;location;lat;lon;timestamp;P1;durP1;ratioP1;P2;durP2;ratioP2
7523;SDS011;3803;51.666;7.630;2023-12-04T00:00:01;7.87;;;3.20;;
7523;SDS011;3803;51.666;7.630;2023-12-04T00:00:32;8.07;;;2.80;;
7523;SDS011;3803;51.666;7.630;2023-12-04T00:00:53;7.10;;;3.50;;
7523;SDS011;3803;51.666;7.630;2023-12-04T00:01:14;7.60;;;3.63;;
7523;SDS011;3803;51.666;7.630;2023-12-04T00:01:42;9.70;;;4.20;;
7523;SDS011;3803;51.666;7.630;2023-12-04T00:02:05;7.93;;;4.00;;
7523;SDS011;3803;51.666;7.630;2023-12-04T00:02:26;5.63;;;4.00;;
7523;SDS011;3803;51.666;7.630;2023-12-04T00:02:46;6.45;;;3.97;;
7523;SDS011;3803;51.666;7.630;2023-12-04T00:03:07;5.78;;;3.55;;
7523;SDS011;3803;51.666;7.630;2023-12-04T00:03:28;7.60;;;3.63;;
7523;SDS011;3803;51.666;7.630;2023-12-04T00:03:54;7.57;;;3.90;;
7523;SDS011;3803;51.666;7.630;2023-12-04T00:04:15;7.45;;;3.70;;
7523;SDS011;3803;51.666;7.630;2023-12-04T00:04:35;5.77;;;3.43;;
7523;SDS011;3803;51.666;7.630;2023-12-04T00:05:01;4.88;;;2.92;;
7523;SDS011;3803;51.666;7.630;2023-12-04T00:05:22;3.05;;;2.78;;
7523;SDS011;3803;51.666;7.630;2023-12-04T00:05:43;3.08;;;2.85;;
7523;SDS011;3803;51.666;7.630;2023-12-04T00:06:04;4.40;;;3.17;;
7523;SDS011;3803;51.666;7.630;2023-12-04T00:06:25;5.15;;;3.33;;
7523;SDS011;3803;51.666;7.630;2023-12-04T00:06:46;5.63;;;3.50;;
7523;SDS011;3803;51.666;7.630;2023-12-04T00:07:07;7.47;;;3.67;;
7523;SDS011;3803;51.666;7.630;2023-12-04T00:07:27;7.47;;;3.72;;
7523;SDS011;3803;51.666;7.630;2023-12-04T00:07:48;7.47;;;3.90;;
7523;SDS011;3803;51.666;7.630;2023-12-04T00:08:08;5.38;;;3.90;;
7523;SDS011;3803;51.666;7.630;2023-12-04T00:08:29;5.35;;;3.85;;
7523;SDS011;3803;51.666;7.630;2023-12-04T00:08:51;5.60;;;3.60;;
7523;SDS011;3803;51.666;7.630;2023-12-04T00:09:11;6.50;;;3.70;;
7523;SDS011;3803;51.666;7.630;2023-12-04T00:09:32;6.53;;;4.13;;
7523;SDS011;3803;51.666;7.630;2023-12-04T00:09:53;7.18;;;4.28;;
7523;SDS011;3803;51.666;7.630;2023-12-04T00:10:13;7.88;;;4.45;;
7523;SDS011;3803;51.666;7.630;2023-12-04T00:10:34;7.30;;;3.92;;
7523;SDS011;3803;51.666;7.630;2023-12-04T00:10:55;7.40;;;4.03;;
7523;SDS011;3803;51.666;7.630;2023-12-04T00:11:15;7.35;;;4.10;;
7523;SDS011;3803;51.666;7.630;2023-12-04T00:11:36;7.50;;;4.20;;
7523;SDS011;3803;51.666;7.630;2023-12-04T00:11:57;6.68;;;3.75;;
7523;SDS011;3803;51.666;7.630;2023-12-04T00:12:18;6.78;;;4.10;;
7523;SDS011;3803;51.666;7.630;2023-12-04T00:12:39;5.72;;;3.78;;
7523;SDS011;3803;51.666;7.630;2023-12-04T00:13:00;6.68;;;3.80;;
7523;SDS011;3803;51.666;7.630;2023-12-04T00:13:20;6.80;;;3.80;;
7523;SDS011;3803;51.666;7.630;2023-12-04T00:13:41;7.28;;;4.07;;
7523;SDS011;3803;51.666;7.630;2023-12-04T00:14:01;6.25;;;4.00;;
7523;SDS011;3803;51.666;7.630;2023-12-04T00:14:22;10.60;;;3.90;;
7523;SDS011;3803;51.666;7.630;2023-12-04T00:14:43;12.02;;;3.70;;
7523;SDS011;3803;51.666;7.630;2023-12-04T00:15:04;12.20;;;3.80;;
7523;SDS011;3803;51.666;7.630;2023-12-04T00:15:25;8.05;;;3.30;;
7523;SDS011;3803;51.666;7.630;2023-12-04T00:15:46;8.10;;;3.78;;
7523;SDS011;3803;51.666;7.630;2023-12-04T00:16:07;8.77;;;3.70;;
7523;SDS011;3803;51.666;7.630;2023-12-04T00:16:27;8.20;;;3.78;;
7523;SDS011;3803;51.666;7.630;2023-12-04T00:16:48;6.03;;;3.63;;
7523;SDS011;3803;51.666;7.630;2023-12-04T00:17:09;6.00;;;3.85;;
7523;SDS011;3803;51.666;7.630;2023-12-04T00:17:30;5.15;;;3.80;;
7523;SDS011;3803;51.666;7.630;2023-12-04T00:17:51;3.80;;;3.40;;
7523;SDS011;3803;51.666;7.630;2023-12-04T00:18:12;3.67;;;3.38;;
7523;SDS011;3803;51.666;7.630;2023-12-04T00:18:33;3.47;;;3.17;;
7523;SDS011;3803;51.666;7.630;2023-12-04T00:18:54;5.55;;;3.40;;
7523;SDS011;3803;51.666;7.630;2023-12-04T00:19:14;6.28;;;3.33;;
7523;SDS011;3803;51.666;7.630;2023-12-04T00:19:35;7.93;;;3.75;;
7523;SDS011;3803;51.666;7.630;2023-12-04T00:19:55;5.57;;;3.60;;
7523;SDS011;3803;51.666;7.630;2023-12-04T00:20:16;5.70;;;3.70;;
7523;SDS011;3803;51.666;7.630;2023-12-04T00:20:37;5.13;;;3.25;;
7523;SDS011;3803;51.666;7.630;2023-12-04T00:20:57;7.40;;;3.67;;
7523;SDS011;3803;51.666;7.630;2023-12-04T00:21:18;7.30;;;3.80;;
7523;SDS011;3803;51.666;7.630;2023-12-04T00:21:39;6.70;;;4.00;;
7523;SDS011;3803;51.666;7.630;2023-12-04T00:22:11;6.65;;;4.20;;
7523;SDS011;3803;51.666;7.630;2023-12-04T00:22:33;7.82;;;4.40;;
7523;SDS011;3803;51.666;7.630;2023-12-04T00:22:53;6.90;;;4.00;;
7523;SDS011;3803;51.666;7.630;2023-12-04T00:23:14;7.38;;;3.72;;
7523;SDS011;3803;51.666;7.630;2023-12-04T00:23:36;6.65;;;3.25;;
7523;SDS011;3803;51.666;7.630;2023-12-04T00:23:57;7.10;;;3.50;;
7523;SDS011;3803;51.666;7.630;2023-12-04T00:24:18;5.90;;;3.75;;
7523;SDS011;3803;51.666;7.630;2023-12-04T00:24:38;7.25;;;4.57;;
7523;SDS011;3803;51.666;7.630;2023-12-04T00:24:59;6.70;;;4.63;;
7523;SDS011;3803;51.666;7.630;2023-12-04T00:25:19;5.70;;;4.30;;
7523;SDS011;3803;51.666;7.630;2023-12-04T00:25:40;5.28;;;3.70;;
7523;SDS011;3803;51.666;7.630;2023-12-04T00:26:01;7.70;;;4.03;;
7523;SDS011;3803;51.666;7.630;2023-12-04T00:26:22;8.30;;;4.20;;
7523;SDS011;3803;51.666;7.630;2023-12-04T00:26:43;9.10;;;4.60;;
7523;SDS011;3803;51.666;7.630;2023-12-04T00:27:04;6.15;;;3.92;;
7523;SDS011;3803;51.666;7.630;2023-12-04T00:27:24;5.15;;;3.38;;
7523;SDS011;3803;51.666;7.630;2023-12-04T00:27:47;4.50;;;3.70;;
7523;SDS011;3803;51.666;7.630;2023-12-04T00:28:07;5.45;;;4.32;;
7523;SDS011;3803;51.666;7.630;2023-12-04T00:28:28;6.13;;;4.63;;
7523;SDS011;3803;51.666;7.630;2023-12-04T00:28:49;7.33;;;4.00;;
7523;SDS011;3803;51.666;7.630;2023-12-04T00:29:09;10.02;;;3.95;;
7523;SDS011;3803;51.666;7.630;2023-12-04T00:29:30;10.40;;;3.90;;
7523;SDS011;3803;51.666;7.630;2023-12-04T00:29:50;8.75;;;4.07;;
7523;SDS011;3803;51.666;7.630;2023-12-04T00:30:11;6.38;;;4.32;;
7523;SDS011;3803;51.666;7.630;2023-12-04T00:30:32;10.60;;;4.68;;
7523;SDS011;3803;51.666;7.630;2023-12-04T00:30:53;13.15;;;4.60;;
7523;SDS011;3803;51.666;7.630;2023-12-04T00:31:13;16.10;;;4.63;;
7523;SDS011;3803;51.666;7.630;2023-12-04T00:31:34;11.17;;;4.60;;
7523;SDS011;3803;51.666;7.630;2023-12-04T00:31:55;18.30;;;4.88;;
7523;SDS011;3803;51.666;7.630;2023-12-04T00:32:17;15.52;;;4.50;;
7523;SDS011;3803;51.666;7.630;2023-12-04T00:35:21;6.97;;;4.18;;
7523;SDS011;3803;51.666;7.630;2023-12-04T00:35:42;7.38;;;3.78;;
7523;SDS011;3803;51.666;7.630;2023-12-04T00:36:04;7.38;;;3.60;;
7523;SDS011;3803;51.666;7.630;2023-12-04T00:36:25;7.13;;;3.83;;
7523;SDS011;3803;51.666;7.630;2023-12-04T00:36:45;5.80;;;4.03;;
7523;SDS011;3803;51.666;7.630;2023-12-04T00:37:06;5.15;;;4.05;;
7523;SDS011;3803;51.666;7.630;2023-12-04T00:37:26;4.63;;;4.10;;
7523;SDS011;3803;51.666;7.630;2023-12-04T00:37:47;4.53;;;3.88;;
7523;SDS011;3803;51.666;7.630;2023-12-04T00:38:08;4.30;;;3.60;;
7523;SDS011;3803;51.666;7.630;2023-12-04T00:38:29;4.32;;;3.20;;
7523;SDS011;3803;51.666;7.630;2023-12-04T00:38:49;5.25;;;3.25;;
7523;SDS011;3803;51.666;7.630;2023-12-04T00:39:10;5.78;;;3.88;;
7523;SDS011;3803;51.666;7.630;2023-12-04T00:39:31;5.10;;;3.70;;
7523;SDS011;3803;51.666;7.630;2023-12-04T00:39:52;5.90;;;4.13;;
7523;SDS011;3803;51.666;7.630;2023-12-04T00:40:12;6.53;;;4.40;;
7523;SDS011;3803;51.666;7.630;2023-12-04T00:40:33;9.00;;;4.60;;
7523;SDS011;3803;51.666;7.630;2023-12-04T00:40:53;8.23;;;4.32;;
7523;SDS011;3803;51.666;7.630;2023-12-04T00:41:15;8.80;;;4.00;;
7523;SDS011;3803;51.666;7.630;2023-12-04T00:41:36;7.53;;;4.20;;
7523;SDS011;3803;51.666;7.630;2023-12-04T00:41:56;7.00;;;4.17;;
7523;SDS011;3803;51.666;7.630;2023-12-04T00:42:17;6.60;;;4.35;;
7523;SDS011;3803;51.666;7.630;2023-12-04T00:42:38;6.28;;;4.30;;
7523;SDS011;3803;51.666;7.630;2023-12-04T00:42:58;6.75;;;4.57;;
7523;SDS011;3803;51.666;7.630;2023-12-04T00:43:19;6.87;;;4.63;;
7523;SDS011;3803;51.666;7.630;2023-12-04T00:43:40;5.50;;;4.20;;
7523;SDS011;3803;51.666;7.630;2023-12-04T00:44:00;5.20;;;4.13;;
7523;SDS011;3803;51.666;7.630;2023-12-04T00:44:21;5.37;;;4.33;;
7523;SDS011;3803;51.666;7.630;2023-12-04T00:44:41;7.03;;;4.80;;
7523;SDS011;3803;51.666;7.630;2023-12-04T00:45:02;6.45;;;4.53;;
7523;SDS011;3803;51.666;7.630;2023-12-04T00:45:23;7.68;;;4.60;;
7523;SDS011;3803;51.666;7.630;2023-12-04T00:45:44;6.97;;;4.38;;
7523;SDS011;3803;51.666;7.630;2023-12-04T00:46:05;8.38;;;5.07;;
7523;SDS011;3803;51.666;7.630;2023-12-04T00:46:26;6.40;;;4.55;;
7523;SDS011;3803;51.666;7.630;2023-12-04T00:46:46;6.20;;;4.20;;
7523;SDS011;3803;51.666;7.630;2023-12-04T00:47:07;4.70;;;3.70;;
7523;SDS011;3803;51.666;7.630;2023-12-04T00:47:28;4.80;;;3.83;;
7523;SDS011;3803;51.666;7.630;2023-12-04T00:47:49;5.32;;;4.00;;
7523;SDS011;3803;51.666;7.630;2023-12-04T00:48:11;6.00;;;4.50;;
7523;SDS011;3803;51.666;7.630;2023-12-04T00:48:31;7.50;;;4.50;;
7523;SDS011;3803;51.666;7.630;2023-12-04T00:48:52;6.57;;;4.35;;
7523;SDS011;3803;51.666;7.630;2023-12-04T00:49:13;7.15;;;3.90;;
7523;SDS011;3803;51.666;7.630;2023-12-04T00:49:33;6.20;;;4.07;;
7523;SDS011;3803;51.666;7.630;2023-12-04T00:49:54;8.60;;;4.57;;
7523;SDS011;3803;51.666;7.630;2023-12-04T00:50:14;9.32;;;5.07;;
7523;SDS011;3803;51.666;7.630;2023-12-04T00:50:35;11.35;;;4.82;;
7523;SDS011;3803;51.666;7.630;2023-12-04T00:50:57;9.25;;;4.40;;
7523;SDS011;3803;51.666;7.630;2023-12-04T00:51:18;7.13;;;4.15;;
7523;SDS011;3803;51.666;7.630;2023-12-04T00:51:38;5.65;;;4.35;;
7523;SDS011;3803;51.666;7.630;2023-12-04T00:51:59;5.38;;;4.05;;
7523;SDS011;3803;51.666;7.630;2023-12-04T00:52:20;7.57;;;4.25;;
7523;SDS011;3803;51.666;7.630;2023-12-04T00:52:40;7.27;;;4.10;;
7523;SDS011;3803;51.666;7.630;2023-12-04T00:53:01;9.25;;;4.50;;
7523;SDS011;3803;51.666;7.630;2023-12-04T00:53:22;7.40;;;4.13;;
7523;SDS011;3803;51.666;7.630;2023-12-04T00:53:43;14.05;;;4.45;;
7523;SDS011;3803;51.666;7.630;2023-12-04T00:54:04;14.20;;;4.30;;
7523;SDS011;3803;51.666;7.630;2023-12-04T00:54:25;15.35;;;4.22;;
7523;SDS011;3803;51.666;7.630;2023-12-04T00:54:45;7.28;;;3.97;;
7523;SDS011;3803;51.666;7.630;2023-12-04T00:55:06;7.33;;;4.17;;
7523;SDS011;3803;51.666;7.630;2023-12-04T00:55:26;7.68;;;4.78;;
7523;SDS011;3803;51.666;7.630;2023-12-04T00:59:49;8.80;;;4.70;;
7523;SDS011;3803;51.666;7.630;2023-12-04T01:00:13;8.57;;;4.10;;
7523;SDS011;3803;51.666;7.630;2023-12-04T01:00:34;8.52;;;3.88;;
7523;SDS011;3803;51.666;7.630;2023-12-04T01:00:55;7.75;;;3.70;;
7523;SDS011;3803;51.666;7.630;2023-12-04T01:01:17;4.15;;;3.30;;
7523;SDS011;3803;51.666;7.630;2023-12-04T01:01:37;4.00;;;3.35;;
7523;SDS011;3803;51.666;7.630;2023-12-04T01:01:58;4.13;;;3.73;;
7523;SDS011;3803;51.666;7.630;2023-12-04T01:02:19;4.33;;;3.93;;
7523;SDS011;3803;51.666;7.630;2023-12-04T01:02:40;4.78;;;4.15;;
7523;SDS011;3803;51.666;7.630;2023-12-04T01:03:01;6.45;;;4.18;;
7523;SDS011;3803;51.666;7.630;2023-12-04T01:03:22;7.10;;;4.40;;
7523;SDS011;3803;51.666;7.630;2023-12-04T01:03:42;7.03;;;4.30;;
7523;SDS011;3803;51.666;7.630;2023-12-04T01:04:03;5.63;;;4.10;;
7523;SDS011;3803;51.666;7.630;2023-12-04T01:04:24;5.43;;;3.78;;
7523;SDS011;3803;51.666;7.630;2023-12-04T01:04:45;5.30;;;3.90;;
7523;SDS011;3803;51.666;7.630;2023-12-04T01:05:06;6.95;;;4.20;;
7523;SDS011;3803;51.666;7.630;2023-12-04T01:05:27;7.13;;;4.43;;
7523;SDS011;3803;51.666;7.630;2023-12-04T01:05:48;7.30;;;4.05;;
7523;SDS011;3803;51.666;7.630;2023-12-04T01:06:11;7.05;;;4.25;;
7523;SDS011;3803;51.666;7.630;2023-12-04T01:06:41;8.00;;;4.64;;
7523;SDS011;3803;51.666;7.630;2023-12-04T01:07:20;8.25;;;4.38;;
7523;SDS011;3803;51.666;7.630;2023-12-04T01:07:44;7.32;;;4.55;;
7523;SDS011;3803;51.666;7.630;2023-12-04T01:08:05;5.88;;;4.40;;
7523;SDS011;3803;51.666;7.630;2023-12-04T01:08:25;6.35;;;4.90;;
7523;SDS011;3803;51.666;7.630;2023-12-04T01:08:46;5.05;;;4.30;;
7523;SDS011;3803;51.666;7.630;2023-12-04T01:09:07;6.30;;;4.80;;
7523;SDS011;3803;51.666;7.630;2023-12-04T01:09:31;5.47;;;4.33;;
7523;SDS011;3803;51.666;7.630;2023-12-04T01:09:51;5.68;;;4.28;;
7523;SDS011;3803;51.666;7.630;2023-12-04T01:10:12;5.72;;;4.45;;
7523;SDS011;3803;51.666;7.630;2023-12-04T01:10:32;6.40;;;4.60;;
7523;SDS011;3803;51.666;7.630;2023-12-04T01:10:53;8.80;;;4.97;;
7523;SDS011;3803;51.666;7.630;2023-12-04T01:11:14;8.98;;;5.03;;
7523;SDS011;3803;51.666;7.630;2023-12-04T01:11:36;8.43;;;5.10;;
7523;SDS011;3803;51.666;7.630;2023-12-04T01:11:57;7.10;;;4.72;;
7523;SDS011;3803;51.666;7.630;2023-12-04T01:12:18;6.57;;;4.50;;
7523;SDS011;3803;51.666;7.630;2023-12-04T01:12:39;7.10;;;4.30;;
7523;SDS011;3803;51.666;7.630;2023-12-04T01:12:59;6.97;;;3.95;;
7523;SDS011;3803;51.666;7.630;2023-12-04T01:13:20;6.43;;;3.78;;
7523;SDS011;3803;51.666;7.630;2023-12-04T01:13:41;6.45;;;4.10;;
7523;SDS011;3803;51.666;7.630;2023-12-04T01:14:02;6.10;;;4.40;;
7523;SDS011;3803;51.666;7.630;2023-12-04T01:14:22;5.57;;;4.37;;
7523;SDS011;3803;51.666;7.630;2023-12-04T01:14:43;5.47;;;4.18;;
7523;SDS011;3803;51.666;7.630;2023-12-04T01:15:05;5.60;;;4.20;;
7523;SDS011;3803;51.666;7.630;2023-12-04T01:15:26;6.20;;;4.38;;
7523;SDS011;3803;51.666;7.630;2023-12-04T01:15:46;6.45;;;4.55;;
7523;SDS011;3803;51.666;7.630;2023-12-04T01:16:08;6.40;;;4.47;;
7523;SDS011;3803;51.666;7.630;2023-12-04T01:16:29;5.82;;;4.20;;
7523;SDS011;3803;51.666;7.630;2023-12-04T01:16:51;6.88;;;4.40;;
7523;SDS011;3803;51.666;7.630;2023-12-04T01:17:11;7.40;;;4.30;;
7523;SDS011;3803;51.666;7.630;2023-12-04T01:17:32;7.60;;;4.50;;
7523;SDS011;3803;51.666;7.630;2023-12-04T01:17:53;6.40;;;4.40;;
7523;SDS011;3803;51.666;7.630;2023-12-04T01:18:14;5.63;;;4.60;;
7523;SDS011;3803;51.666;7.630;2023-12-04T01:18:34;6.90;;;4.80;;
7523;SDS011;3803;51.666;7.630;2023-12-04T01:18:55;6.70;;;4.80;;
7523;SDS011;3803;51.666;7.630;2023-12-04T01:19:16;7.05;;;4.80;;
7523;SDS011;3803;51.666;7.630;2023-12-04T01:19:37;7.33;;;4.53;;
7523;SDS011;3803;51.666;7.630;2023-12-04T01:19:57;8.15;;;4.60;;
7523;SDS011;3803;51.666;7.630;2023-12-04T01:20:18;8.65;;;4.57;;
7523;SDS011;3803;51.666;7.630;2023-12-04T01:20:40;8.30;;;4.97;;
7523;SDS011;3803;51.666;7.630;2023-12-04T01:21:02;6.82;;;4.70;;
7523;SDS011;3803;51.666;7.630;2023-12-04T01:21:23;6.50;;;4.90;;
7523;SDS011;3803;51.666;7.630;2023-12-04T01:21:43;6.40;;;4.65;;
7523;SDS011;3803;51.666;7.630;2023-12-04T01:22:04;6.80;;;4.70;;
7523;SDS011;3803;51.666;7.630;2023-12-04T01:22:25;6.53;;;4.60;;
7523;SDS011;3803;51.666;7.630;2023-12-04T01:25:46;9.02;;;5.40;;
7523;SDS011;3803;51.666;7.630;2023-12-04T01:26:10;8.60;;;5.40;;
7523;SDS011;3803;51.666;7.630;2023-12-04T01:26:32;6.20;;;4.85;;
7523;SDS011;3803;51.666;7.630;2023-12-04T01:26:53;6.18;;;4.85;;
7523;SDS011;3803;51.666;7.630;2023-12-04T01:27:13;6.90;;;4.95;;
7523;SDS011;3803;51.666;7.630;2023-12-04T01:27:34;7.38;;;5.30;;
7523;SDS011;3803;51.666;7.630;2023-12-04T01:27:57;8.02;;;5.20;;
7523;SDS011;3803;51.666;7.630;2023-12-04T01:28:18;7.88;;;4.80;;
7523;SDS011;3803;51.666;7.630;2023-12-04T01:28:39;7.38;;;4.30;;
7523;SDS011;3803;51.666;7.630;2023-12-04T01:28:59;7.10;;;4.60;;
7523;SDS011;3803;51.666;7.630;2023-12-04T01:29:20;7.22;;;4.82;;
7523;SDS011;3803;51.666;7.630;2023-12-04T01:29:41;7.78;;;5.28;;
7523;SDS011;3803;51.666;7.630;2023-12-04T01:30:02;6.57;;;5.00;;
7523;SDS011;3803;51.666;7.630;2023-12-04T01:30:23;7.95;;;5.40;;
7523;SDS011;3803;51.666;7.630;2023-12-04T01:30:43;7.93;;;5.00;;
7523;SDS011;3803;51.666;7.630;2023-12-04T01:31:04;9.60;;;5.70;;
7523;SDS011;3803;51.666;7.630;2023-12-04T01:31:25;8.35;;;5.10;;
7523;SDS011;3803;51.666;7.630;2023-12-04T01:31:45;7.60;;;4.77;;
7523;SDS011;3803;51.666;7.630;2023-12-04T01:32:06;7.85;;;4.97;;
7523;SDS011;3803;51.666;7.630;2023-12-04T01:32:27;8.30;;;5.07;;
7523;SDS011;3803;51.666;7.630;2023-12-04T01:32:48;8.43;;;5.13;;
7523;SDS011;3803;51.666;7.630;2023-12-04T01:33:09;6.45;;;4.40;;
7523;SDS011;3803;51.666;7.630;2023-12-04T01:33:30;6.05;;;4.45;;
7523;SDS011;3803;51.666;7.630;2023-12-04T01:33:50;7.63;;;5.23;;
7523;SDS011;3803;51.666;7.630;2023-12-04T01:34:11;8.50;;;5.20;;
7523;SDS011;3803;51.666;7.630;2023-12-04T01:34:31;11.75;;;5.60;;
7523;SDS011;3803;51.666;7.630;2023-12-04T01:34:52;9.67;;;4.83;;
7523;SDS011;3803;51.666;7.630;2023-12-04T01:35:13;9.80;;;5.10;;
7523;SDS011;3803;51.666;7.630;2023-12-04T01:35:33;6.90;;;4.50;;
7523;SDS011;3803;51.666;7.630;2023-12-04T01:35:54;9.40;;;4.60;;
7523;SDS011;3803;51.666;7.630;2023-12-04T01:36:15;9.82;;;4.75;;
7523;SDS011;3803;51.666;7.630;2023-12-04T01:36:35;9.83;;;5.03;;
7523;SDS011;3803;51.666;7.630;2023-12-04T01:36:59;8.68;;;4.95;;
7523;SDS011;3803;51.666;7.630;2023-12-04T01:37:20;8.03;;;4.63;;
7523;SDS011;3803;51.666;7.630;2023-12-04T01:37:41;7.75;;;4.63;;
7523;SDS011;3803;51.666;7.630;2023-12-04T01:38:01;7.63;;;4.70;;
7523;SDS011;3803;51.666;7.630;2023-12-04T01:38:22;7.33;;;5.10;;
7523;SDS011;3803;51.666;7.630;2023-12-04T01:38:42;7.88;;;5.07;;
7523;SDS011;3803;51.666;7.630;2023-12-04T01:39:03;9.00;;;5.40;;
7523;SDS011;3803;51.666;7.630;2023-12-04T01:39:24;9.57;;;5.03;;
7523;SDS011;3803;51.666;7.630;2023-12-04T01:39:44;8.40;;;4.97;;
7523;SDS011;3803;51.666;7.630;2023-12-04T01:40:05;9.55;;;4.80;;
7523;SDS011;3803;51.666;7.630;2023-12-04T01:40:27;9.50;;;5.30;;
7523;SDS011;3803;51.666;7.630;2023-12-04T01:40:47;8.90;;;5.33;;
7523;SDS011;3803;51.666;7.630;2023-12-04T01:41:08;9.20;;;5.28;;
7523;SDS011;3803;51.666;7.630;2023-12-04T01:41:29;10.87;;;5.40;;
7523;SDS011;3803;51.666;7.630;2023-12-04T01:41:50;11.23;;;5.68;;
7523;SDS011;3803;51.666;7.630;2023-12-04T01:42:11;9.48;;;5.63;;
7523;SDS011;3803;51.666;7.630;2023-12-04T01:42:32;7.77;;;5.50;;
7523;SDS011;3803;51.666;7.630;2023-12-04T01:42:53;7.36;;;5.20;;
7523;SDS011;3803;51.666;7.630;2023-12-04T01:43:13;6.23;;;4.90;;
7523;SDS011;3803;51.666;7.630;2023-12-04T01:43:35;5.38;;;4.53;;
7523;SDS011;3803;51.666;7.630;2023-12-04T01:43:55;5.97;;;4.63;;
7523;SDS011;3803;51.666;7.630;2023-12-04T01:44:16;6.20;;;4.65;;
7523;SDS011;3803;51.666;7.630;2023-12-04T01:44:38;8.27;;;5.10;;
7523;SDS011;3803;51.666;7.630;2023-12-04T01:44:59;7.82;;;5.20;;
7523;SDS011;3803;51.666;7.630;2023-12-04T01:45:20;8.85;;;5.60;;
7523;SDS011;3803;51.666;7.630;2023-12-04T01:45:40;8.88;;;5.35;;
7523;SDS011;3803;51.666;7.630;2023-12-04T01:46:01;13.73;;;5.70;;
7523;SDS011;3803;51.666;7.630;2023-12-04T01:46:22;13.10;;;5.50;;
7523;SDS011;3803;51.666;7.630;2023-12-04T01:46:43;11.80;;;5.22;;
7523;SDS011;3803;51.666;7.630;2023-12-04T01:47:04;6.43;;;4.90;;
7523;SDS011;3803;51.666;7.630;2023-12-04T01:47:27;9.52;;;4.75;;
7523;SDS011;3803;51.666;7.630;2023-12-04T01:47:49;12.30;;;5.00;;
7523;SDS011;3803;51.666;7.630;2023-12-04T01:48:10;8.73;;;4.80;;
7523;SDS011;3803;51.666;7.630;2023-12-04T01:48:33;10.80;;;5.07;;
7523;SDS011;3803;51.666;7.630;2023-12-04T01:48:54;8.93;;;5.20;;
7523;SDS011;3803;51.666;7.630;2023-12-04T01:49:15;10.30;;;5.45;;
7523;SDS011;3803;51.666;7.630;2023-12-04T01:49:36;10.00;;;5.70;;
7523;SDS011;3803;51.666;7.630;2023-12-04T01:49:57;10.38;;;5.50;;
7523;SDS011;3803;51.666;7.630;2023-12-04T01:50:18;8.80;;;5.55;;
7523;SDS011;3803;51.666;7.630;2023-12-04T01:50:39;8.30;;;5.60;;
7523;SDS011;3803;51.666;7.630;2023-12-04T01:51:00;8.48;;;5.82;;
7523;SDS011;3803;51.666;7.630;2023-12-04T01:51:26;9.57;;;5.85;;
7523;SDS011;3803;51.666;7.630;2023-12-04T01:51:47;9.40;;;5.77;;
7523;SDS011;3803;51.666;7.630;2023-12-04T01:52:09;9.95;;;5.82;;
7523;SDS011;3803;51.666;7.630;2023-12-04T01:52:30;9.80;;;5.63;;
7523;SDS011;3803;51.666;7.630;2023-12-04T01:52:51;9.55;;;5.40;;
7523;SDS011;3803;51.666;7.630;2023-12-04T01:53:13;8.15;;;5.10;;
7523;SDS011;3803;51.666;7.630;2023-12-04T01:53:35;7.20;;;4.93;;
7523;SDS011;3803;51.666;7.630;2023-12-04T01:53:59;8.35;;;5.30;;
7523;SDS011;3803;51.666;7.630;2023-12-04T01:54:20;8.07;;;5.22;;
7523;SDS011;3803;51.666;7.630;2023-12-04T01:54:42;8.65;;;5.32;;
7523;SDS011;3803;51.666;7.630;2023-12-04T01:55:04;8.07;;;5.00;;
7523;SDS011;3803;51.666;7.630;2023-12-04T01:55:26;8.23;;;5.28;;
7523;SDS011;3803;51.666;7.630;2023-12-04T01:55:48;9.18;;;5.35;;
7523;SDS011;3803;51.666;7.630;2023-12-04T01:56:09;8.77;;;5.43;;
7523;SDS011;3803;51.666;7.630;2023-12-04T01:56:31;7.93;;;5.07;;
7523;SDS011;3803;51.666;7.630;2023-12-04T01:56:52;7.13;;;5.05;;
7523;SDS011;3803;51.666;7.630;2023-12-04T01:57:13;6.45;;;4.80;;
7523;SDS011;3803;51.666;7.630;2023-12-04T01:57:34;5.60;;;4.50;;
7523;SDS011;3803;51.666;7.630;2023-12-04T01:57:56;5.00;;;4.45;;
7523;SDS011;3803;51.666;7.630;2023-12-04T01:58:17;6.38;;;4.93;;
7523;SDS011;3803;51.666;7.630;2023-12-04T01:58:41;10.48;;;5.32;;
7523;SDS011;3803;51.666;7.630;2023-12-04T01:59:02;11.90;;;5.28;;
7523;SDS011;3803;51.666;7.630;2023-12-04T01:59:24;11.63;;;5.20;;
7523;SDS011;3803;51.666;7.630;2023-12-04T01:59:46;8.55;;;5.43;;
7523;SDS011;3803;51.666;7.630;2023-12-04T02:00:07;7.03;;;5.50;;
7523;SDS011;3803;51.666;7.630;2023-12-04T02:00:34;8.00;;;5.20;;
7523;SDS011;3803;51.666;7.630;2023-12-04T02:00:55;8.05;;;5.07;;
7523;SDS011;3803;51.666;7.630;2023-12-04T02:01:16;8.00;;;5.00;;
7523;SDS011;3803;51.666;7.630;2023-12-04T02:01:38;7.65;;;5.25;;
7523;SDS011;3803;51.666;7.630;2023-12-04T02:02:00;6.47;;;4.82;;
7523;SDS011;3803;51.666;7.630;2023-12-04T02:02:21;6.90;;;4.78;;
7523;SDS011;3803;51.666;7.630;2023-12-04T02:02:42;6.22;;;4.45;;
7523;SDS011;3803;51.666;7.630;2023-12-04T02:03:03;6.63;;;4.70;;
7523;SDS011;3803;51.666;7.630;2023-12-04T02:03:24;6.38;;;4.65;;
7523;SDS011;3803;51.666;7.630;2023-12-04T02:03:45;9.00;;;5.15;;
7523;SDS011;3803;51.666;7.630;2023-12-04T02:04:06;8.55;;;4.90;;
7523;SDS011;3803;51.666;7.630;2023-12-04T02:04:27;6.63;;;4.70;;
7523;SDS011;3803;51.666;7.630;2023-12-04T02:04:48;5.72;;;4.50;;
7523;SDS011;3803;51.666;7.630;2023-12-04T02:05:09;6.20;;;4.60;;
7523;SDS011;3803;51.666;7.630;2023-12-04T02:05:31;8.10;;;5.07;;
7523;SDS011;3803;51.666;7.630;2023-12-04T02:05:52;8.02;;;4.80;;
7523;SDS011;3803;51.666;7.630;2023-12-04T02:06:14;11.02;;;5.32;;
7523;SDS011;3803;51.666;7.630;2023-12-04T02:06:36;11.43;;;5.55;;
7523;SDS011;3803;51.666;7.630;2023-12-04T02:06:57;9.98;;;5.70;;
7523;SDS011;3803;51.666;7.630;2023-12-04T02:07:18;7.45;;;5.35;;
7523;SDS011;3803;51.666;7.630;2023-12-04T02:07:40;6.90;;;5.10;;
7523;SDS011;3803;51.666;7.630;2023-12-04T02:08:01;8.02;;;5.10;;
7523;SDS011;3803;51.666;7.630;2023-12-04T02:08:22;9.75;;;5.22;;
7523;SDS011;3803;51.666;7.630;2023-12-04T02:08:44;10.40;;;5.45;;
7523;SDS011;3803;51.666;7.630;2023-12-04T02:09:07;10.18;;;5.40;;
7523;SDS011;3803;51.666;7.630;2023-12-04T02:09:32;7.90;;;5.65;;
7523;SDS011;3803;51.666;7.630;2023-12-04T02:09:53;9.07;;;5.50;;
7523;SDS011;3803;51.666;7.630;2023-12-04T02:10:13;8.88;;;5.13;;
7523;SDS011;3803;51.666;7.630;2023-12-04T02:10:34;11.20;;;5.17;;
7523;SDS011;3803;51.666;7.630;2023-12-04T02:10:55;11.55;;;5.32;;
7523;SDS011;3803;51.666;7.630;2023-12-04T02:11:16;12.05;;;5.60;;
7523;SDS011;3803;51.666;7.630;2023-12-04T02:11:37;10.00;;;5.40;;
7523;SDS011;3803;51.666;7.630;2023-12-04T02:11:59;9.23;;;5.20;;
7523;SDS011;3803;51.666;7.630;2023-12-04T02:12:20;8.80;;;5.05;;
7523;SDS011;3803;51.666;7.630;2023-12-04T02:12:41;8.48;;;5.15;;
7523;SDS011;3803;51.666;7.630;2023-12-04T02:13:02;8.18;;;5.10;;
7523;SDS011;3803;51.666;7.630;2023-12-04T02:13:23;6.53;;;4.70;;
7523;SDS011;3803;51.666;7.630;2023-12-04T02:13:44;7.75;;;4.97;;
7523;SDS011;3803;51.666;7.630;2023-12-04T02:14:05;8.43;;;4.73;;
7523;SDS011;3803;51.666;7.630;2023-12-04T02:14:25;8.90;;;5.22;;
7523;SDS011;3803;51.666;7.630;2023-12-04T02:14:46;6.82;;;4.70;;
7523;SDS011;3803;51.666;7.630;2023-12-04T02:15:07;7.90;;;5.00;;
7523;SDS011;3803;51.666;7.630;2023-12-04T02:15:29;7.55;;;4.90;;
7523;SDS011;3803;51.666;7.630;2023-12-04T02:15:51;8.27;;;5.43;;
7523;SDS011;3803;51.666;7.630;2023-12-04T02:16:14;8.30;;;5.40;;
7523;SDS011;3803;51.666;7.630;2023-12-04T02:16:38;7.97;;;5.30;;
7523;SDS011;3803;51.666;7.630;2023-12-04T02:17:01;10.20;;;5.35;;
7523;SDS011;3803;51.666;7.630;2023-12-04T02:17:26;13.38;;;5.93;;
7523;SDS011;3803;51.666;7.630;2023-12-04T02:17:48;10.43;;;5.72;;
7523;SDS011;3803;51.666;7.630;2023-12-04T02:18:09;9.95;;;5.55;;
7523;SDS011;3803;51.666;7.630;2023-12-04T02:18:30;6.57;;;5.00;;
7523;SDS011;3803;51.666;7.630;2023-12-04T02:18:50;7.97;;;5.15;;
7523;SDS011;3803;51.666;7.630;2023-12-04T02:19:11;7.68;;;4.90;;
7523;SDS011;3803;51.666;7.630;2023-12-04T02:19:33;7.38;;;4.60;;
7523;SDS011;3803;51.666;7.630;2023-12-04T02:19:53;8.30;;;5.22;;
7523;SDS011;3803;51.666;7.630;2023-12-04T02:20:14;8.20;;;5.43;;
7523;SDS011;3803;51.666;7.630;2023-12-04T02:20:35;8.70;;;5.85;;
7523;SDS011;3803;51.666;7.630;2023-12-04T02:20:56;7.88;;;5.25;;
7523;SDS011;3803;51.666;7.630;2023-12-04T02:21:16;6.63;;;4.53;;
7523;SDS011;3803;51.666;7.630;2023-12-04T02:21:37;6.40;;;4.50;;